createdAt,value
2017-08-04T00:00:05.527Z,85.5
2017-08-04T00:05:08.688Z,86.3
2017-08-04T00:10:03.246Z,86.3
2017-08-04T00:15:03.379Z,85.7
2017-08-04T00:20:03.623Z,85.2
2017-08-04T00:25:03.861Z,86.4
2017-08-04T00:30:10.557Z,85.7
2017-08-04T00:35:08.727Z,86.1
2017-08-04T00:40:06.654Z,85.8
2017-08-04T00:45:11.477Z,86
2017-08-04T00:50:11.204Z,86
2017-08-04T00:55:06.193Z,86.3
2017-08-04T01:00:03.493Z,86.3
2017-08-04T01:05:06.149Z,86.3
2017-08-04T01:10:02.739Z,86.4
2017-08-04T01:15:06.361Z,86
2017-08-04T01:20:03.532Z,86
2017-08-04T01:25:03.562Z,85.9
2017-08-04T01:30:03.599Z,85.6
2017-08-04T01:35:08.552Z,85.8
2017-08-04T01:40:10.615Z,86.5
2017-08-04T01:45:03.500Z,86.5
2017-08-04T01:50:03.332Z,86.7
2017-08-04T01:55:03.159Z,86.5
2017-08-04T02:00:05.657Z,86.4
2017-08-04T02:05:08.711Z,86.5
2017-08-04T02:10:03.266Z,86.4
2017-08-04T02:15:05.861Z,86.6
2017-08-04T02:20:05.484Z,86.4
2017-08-04T02:25:03.473Z,86.3
2017-08-04T02:30:06.021Z,86
2017-08-04T02:35:02.795Z,86
2017-08-04T02:40:05.832Z,86.1
2017-08-04T02:45:08.017Z,86.2
2017-08-04T02:50:02.810Z,86
2017-08-04T02:55:15.359Z,85
2017-08-04T03:00:08.327Z,85.1
2017-08-04T03:05:03.346Z,85.1
2017-08-04T03:10:02.719Z,84.8
2017-08-04T03:15:06.180Z,84.3
2017-08-04T03:20:20.961Z,81.4
2017-08-04T03:25:10.680Z,82.9
2017-08-04T03:30:06.184Z,83
2017-08-04T03:35:10.721Z,82.3
2017-08-04T03:40:10.708Z,83.2
2017-08-04T03:45:06.084Z,83.1
2017-08-04T03:50:13.287Z,83.3
2017-08-04T03:55:08.780Z,83.5
2017-08-04T04:00:03.838Z,83.5
2017-08-04T04:05:05.509Z,84.5
2017-08-04T04:10:05.847Z,84.3
2017-08-04T04:15:02.734Z,84.3
2017-08-04T04:20:10.428Z,84.6
2017-08-04T04:25:06.160Z,83.7
2017-08-04T04:30:05.577Z,83.2
2017-08-04T04:35:11.247Z,82
2017-08-04T04:40:03.705Z,82.1
2017-08-04T04:45:04.063Z,80
2017-08-04T04:50:02.845Z,79.8
2017-08-04T04:55:08.011Z,81.7
2017-08-04T05:00:20.538Z,80.1
2017-08-04T05:05:03.472Z,80.1
2017-08-04T05:10:05.658Z,78.1
2017-08-04T05:15:03.748Z,78.1
2017-08-04T05:20:12.749Z,76
2017-08-04T05:25:08.528Z,75.3
2017-08-04T05:30:03.700Z,75.3
2017-08-04T05:35:06.347Z,73.1
2017-08-04T05:40:08.121Z,73.5
2017-08-04T05:45:02.888Z,73.5
2017-08-04T05:50:07.986Z,72.8
2017-08-04T05:55:02.767Z,72.9
2017-08-04T06:00:03.962Z,71
2017-08-04T06:05:28.368Z,69
2017-08-04T06:10:02.697Z,69.1
2017-08-04T06:15:11.132Z,69.8
2017-08-04T06:20:10.734Z,72.3
2017-08-04T06:25:11.304Z,72.1
2017-08-04T06:30:08.471Z,72.1
2017-08-04T06:35:03.496Z,72.1
2017-08-04T06:40:05.538Z,70.7
2017-08-04T06:45:06.224Z,70.2
2017-08-04T06:50:03.286Z,70.2
2017-08-04T06:55:05.884Z,70.6
2017-08-04T07:00:10.565Z,68.9
2017-08-04T07:05:03.701Z,69
2017-08-04T07:10:05.682Z,68.8
2017-08-04T07:15:04.796Z,68.8
2017-08-04T07:20:05.468Z,68.1
2017-08-04T07:25:05.960Z,64.8
2017-08-04T07:30:05.624Z,67.4
2017-08-04T07:35:06.371Z,66
2017-08-04T07:40:25.759Z,64.6
2017-08-04T07:45:02.652Z,64.6
2017-08-04T07:50:06.269Z,66.1
2017-08-04T07:55:05.688Z,66
2017-08-04T08:00:08.625Z,65.4
2017-08-04T08:05:23.943Z,64.8
2017-08-04T08:10:03.749Z,64.7
2017-08-04T08:15:06.444Z,64.9
2017-08-04T08:20:06.070Z,63.6
2017-08-04T08:25:05.595Z,64.9
2017-08-04T08:30:11.160Z,64.8
2017-08-04T08:35:05.562Z,64.1
2017-08-04T08:40:02.870Z,64.1
2017-08-04T08:45:05.329Z,64.3
2017-08-04T08:50:16.112Z,64.4
2017-08-04T08:55:02.860Z,64.5
2017-08-04T09:00:02.791Z,63
2017-08-04T09:05:03.832Z,62
2017-08-04T09:10:03.370Z,64.8
2017-08-04T09:15:06.053Z,59.3
2017-08-04T09:20:05.636Z,58.8
2017-08-04T09:25:03.510Z,58.9
2017-08-04T09:30:36.566Z,58.7
2017-08-04T09:35:03.423Z,58.7
2017-08-04T09:40:05.509Z,55.9
2017-08-04T09:45:06.076Z,54.8
2017-08-04T09:50:02.852Z,54.8
2017-08-04T09:55:02.732Z,56.8
2017-08-04T10:00:03.808Z,56.9
2017-08-04T10:05:15.616Z,55.1
2017-08-04T10:10:08.280Z,53.9
2017-08-04T10:15:03.400Z,54.1
2017-08-04T10:20:03.639Z,54.4
2017-08-04T10:25:03.467Z,51.4
2017-08-04T10:30:08.724Z,54.9
2017-08-04T10:35:08.784Z,54.2
2017-08-04T10:40:05.930Z,55.1
2017-08-04T10:45:08.016Z,55.6
2017-08-04T10:50:03.138Z,55.6
2017-08-04T10:55:03.268Z,52.8
2017-08-04T11:00:03.407Z,53.2
2017-08-04T11:05:03.237Z,53.3
2017-08-04T11:10:08.004Z,51.9
2017-08-04T11:15:13.138Z,51.5
2017-08-04T11:20:03.139Z,51.3
2017-08-04T11:25:05.725Z,54
2017-08-04T11:30:03.831Z,53.6
2017-08-04T11:35:20.645Z,51.2
2017-08-04T11:40:03.176Z,51.3
2017-08-04T11:45:05.678Z,51.8
2017-08-04T11:50:16.354Z,49.9
2017-08-04T11:55:10.819Z,52
2017-08-04T12:00:02.759Z,52
2017-08-04T12:05:08.712Z,50.4
2017-08-04T12:10:08.291Z,50.6
2017-08-04T12:15:10.754Z,51.3
2017-08-04T12:20:10.583Z,49.8
2017-08-04T12:25:06.155Z,48.7
2017-08-04T12:30:05.609Z,49.2
2017-08-04T12:35:06.125Z,48.8
2017-08-04T12:40:06.260Z,49.2
2017-08-04T12:45:03.326Z,49.3
2017-08-04T12:50:10.710Z,48.6
2017-08-04T12:55:06.164Z,49.7
2017-08-04T13:00:03.383Z,49.8
2017-08-04T13:05:06.231Z,50.9
2017-08-04T13:10:11.487Z,50.9
2017-08-04T13:15:03.275Z,50.8
2017-08-04T13:20:03.469Z,50.5
2017-08-04T13:25:05.961Z,53.8
2017-08-04T13:30:05.366Z,50.2
2017-08-04T13:35:05.857Z,48.1
2017-08-04T13:40:03.610Z,48.2
2017-08-04T13:45:08.458Z,44.2
2017-08-04T13:50:03.273Z,44.2
2017-08-04T13:55:06.749Z,46.6
2017-08-04T14:00:03.958Z,46.4
2017-08-04T14:05:05.824Z,45.2
2017-08-04T14:10:10.858Z,46.2
2017-08-04T14:15:02.746Z,46.2
2017-08-04T14:20:02.753Z,48.2
2017-08-04T14:25:03.722Z,46.3
2017-08-04T14:30:06.216Z,45.3
2017-08-04T14:35:03.279Z,45.3
2017-08-04T14:40:02.697Z,46.1
2017-08-04T14:45:03.852Z,46.4
2017-08-04T14:50:08.100Z,45.8
2017-08-04T14:55:05.858Z,43.8
2017-08-04T15:00:08.564Z,44.9
2017-08-04T15:05:10.559Z,45.3
2017-08-04T15:10:06.095Z,43
2017-08-04T15:15:10.664Z,43.7
2017-08-04T15:20:16.499Z,42.7
2017-08-04T15:25:08.558Z,43.5
2017-08-04T15:30:08.572Z,44.8
2017-08-04T15:35:03.496Z,44.8
2017-08-04T15:40:03.225Z,46.1
2017-08-04T15:45:13.192Z,43.3
2017-08-04T15:50:05.748Z,43.1
2017-08-04T15:55:02.778Z,43.1
2017-08-04T16:00:06.335Z,43.5
2017-08-04T16:05:05.960Z,42.7
2017-08-04T16:10:05.893Z,44.4
2017-08-04T16:15:05.415Z,42.7
2017-08-04T16:20:03.505Z,42.7
2017-08-04T16:25:08.559Z,43.3
2017-08-04T16:30:03.375Z,43.3
2017-08-04T16:35:03.509Z,44.8
2017-08-04T16:40:05.591Z,43.2
2017-08-04T16:45:08.590Z,41.5
2017-08-04T16:50:03.818Z,41.5
2017-08-04T16:55:05.287Z,42.8
2017-08-04T17:00:03.281Z,42.9
2017-08-04T17:05:03.518Z,42.9
2017-08-04T17:10:10.652Z,43.8
2017-08-04T17:15:13.725Z,44.9
2017-08-04T17:20:03.651Z,44.8
2017-08-04T17:25:03.526Z,44.8
2017-08-04T17:30:08.501Z,45.5
2017-08-04T17:35:08.585Z,44.8
2017-08-04T17:40:08.576Z,44.5
2017-08-04T17:45:03.694Z,44.5
2017-08-04T17:50:03.729Z,45.3
2017-08-04T17:55:06.426Z,46.6
2017-08-04T18:00:08.509Z,46.8
2017-08-04T18:05:03.638Z,46.8
2017-08-04T18:10:05.716Z,47.1
2017-08-04T18:15:08.724Z,47.2
2017-08-04T18:20:10.590Z,47.6
2017-08-04T18:25:03.677Z,47.5
2017-08-04T18:30:08.784Z,48.5
2017-08-04T18:35:06.459Z,48.2
2017-08-04T18:40:05.513Z,48.9
2017-08-04T18:45:08.460Z,49.4
2017-08-04T18:50:08.454Z,49.5
2017-08-04T18:55:14.775Z,50
2017-08-04T19:00:11.273Z,50.4
2017-08-04T19:05:15.252Z,49.3
2017-08-04T19:10:04.191Z,49.4
2017-08-04T19:15:23.805Z,50
2017-08-04T19:20:02.803Z,50
2017-08-04T19:25:05.421Z,50.5
2017-08-04T19:30:03.408Z,50.5
2017-08-04T19:35:05.902Z,50.6
2017-08-04T19:40:05.936Z,51.3
2017-08-04T19:45:10.478Z,51.3
2017-08-04T19:50:03.548Z,51.3
2017-08-04T19:55:03.481Z,51.4
2017-08-04T20:00:03.418Z,51.9
2017-08-04T20:05:06.191Z,52.9
2017-08-04T20:10:02.753Z,52.8
2017-08-04T20:15:06.387Z,53
2017-08-04T20:20:05.819Z,54.6
2017-08-04T20:25:02.778Z,54.5
2017-08-04T20:30:06.660Z,56
2017-08-04T20:35:06.053Z,56.3
2017-08-04T20:40:06.155Z,58
2017-08-04T20:45:03.220Z,57.8
2017-08-04T20:50:05.816Z,57.1
2017-08-04T20:55:07.999Z,57.5
2017-08-04T21:00:05.474Z,57.8
2017-08-04T21:05:03.568Z,57.8
2017-08-04T21:10:05.648Z,57.8
2017-08-04T21:15:06.397Z,58.6
2017-08-04T21:20:03.363Z,58.6
2017-08-04T21:25:03.294Z,58.3
2017-08-04T21:30:06.021Z,58.3
2017-08-04T21:35:08.484Z,59.2
2017-08-04T21:40:05.551Z,58.9
2017-08-04T21:45:21.255Z,59.3
2017-08-04T21:50:03.367Z,59.3
2017-08-04T21:55:03.469Z,59.8
2017-08-04T22:00:05.999Z,60.3
2017-08-04T22:05:05.625Z,60.3
2017-08-04T22:10:08.219Z,59.5
2017-08-04T22:15:10.740Z,61.2
2017-08-04T22:20:05.423Z,60.1
2017-08-04T22:25:03.408Z,60
2017-08-04T22:30:08.628Z,60.1
2017-08-04T22:35:08.604Z,60.2
2017-08-04T22:40:08.225Z,60
2017-08-04T22:45:03.244Z,59.9
2017-08-04T22:50:03.176Z,59.6
2017-08-04T22:55:08.228Z,59.5
2017-08-04T23:00:03.349Z,59.4
2017-08-04T23:05:05.901Z,59.4
2017-08-04T23:10:03.627Z,59.4
2017-08-04T23:15:06.611Z,59.6
2017-08-04T23:20:21.202Z,59.9
2017-08-04T23:25:10.730Z,60
2017-08-04T23:30:03.662Z,60
2017-08-04T23:35:11.274Z,60.7
2017-08-04T23:40:07.828Z,60.9
2017-08-04T23:45:07.840Z,61.2
2017-08-04T23:50:05.442Z,62.4
2017-08-04T23:55:10.852Z,62.5
